Caribbean Princess — ZCDG8 — position and weather

sailwx.info

Track history (hours):
 
Tides and Currents Weather Stations Pressure Air Temp Water Temp Dewpoint Dewpoint Depression Visibility Wind Speed Wind Dir Waves Ship Positions

Caribbean Princess

Operator: Princess Cruises

Last reported at 2018-Jun-23 22:09 UTC. Time now 2018-Jun-25 00:40 UTC.
Position N 26°08' W 079°35'.

Type: Passenger vessel. MMSI: 310423000.

Date/timePositionNaut miles runAvg speedWind from/ knotsBaromVisibWave heightAir tempDewpointWater temp
2018-Jun-23 22:09N 26°08' W 079°35'319.6
2018-Jun-23 22:00N 26°08' W 079°38'1019.3
2018-Jun-23 21:30N 26°07' W 079°49'918.5
2018-Jun-23 21:00N 26°07' W 079°59'713.1
2018-Jun-23 20:30N 26°06' W 080°06'1 1.6
2018-Jun-23 19:55N 26°06' W 080°07'0 0.0
2018-Jun-23 19:25N 26°06' W 080°07'0 0.0
2018-Jun-23 18:52N 26°06' W 080°07'0 0.0
2018-Jun-23 18:30N 26°06' W 080°07'0 0.0
2018-Jun-23 18:00N 26°06' W 080°07'0 0.0
2018-Jun-23 17:30N 26°06' W 080°07'0 0.0
2018-Jun-23 16:54N 26°06' W 080°07'0 0.0
2018-Jun-23 16:30N 26°06' W 080°07'0 0.0
2018-Jun-23 15:52N 26°06' W 080°07'0 0.0
2018-Jun-23 15:28N 26°06' W 080°07'0 0.0
2018-Jun-23 14:58N 26°06' W 080°07'0 0.0
2018-Jun-23 14:28N 26°06' W 080°07'0 0.0
2018-Jun-23 14:01N 26°06' W 080°07'0 0.0
2018-Jun-23 13:27N 26°06' W 080°07'0 0.0
2018-Jun-23 12:57N 26°06' W 080°07'0 0.0
2018-Jun-23 12:30N 26°06' W 080°07'0 0.0
2018-Jun-23 12:00N 26°06' W 080°07'0 0.0
2018-Jun-23 11:30N 26°06' W 080°07'0 0.0
2018-Jun-23 10:57N 26°06' W 080°07'0 0.0
2018-Jun-23 10:30N 26°06' W 080°07'2 3.3
2018-Jun-23 10:00N 26°06' W 080°05'5 9.7
2018-Jun-23 09:30N 26°06' W 079°60'612.0
2018-Jun-23 09:00N 26°03' W 079°54'815.1
2018-Jun-23 08:30N 25°55' W 079°52'714.7
2018-Jun-23 08:00N 25°48' W 079°52'714.7
2018-Jun-23 07:30N 25°41' W 079°53'714.9
2018-Jun-23 07:00N 25°33' W 079°53'814.8
2018-Jun-23 06:29N 25°26' W 079°54'714.8
2018-Jun-23 06:00N 25°19' W 079°56'48017.4
2018-Jun-22 02:23N 20°34' W 086°57'410.6
2018-Jun-22 02:00N 20°31' W 086°59'2 4.0
2018-Jun-22 01:29N 20°29' W 086°59'0 0.0
2018-Jun-22 00:59N 20°29' W 086°59'0 0.0
2018-Jun-22 00:30N 20°29' W 086°59'0 0.0
2018-Jun-22 00:00N 20°29' W 086°59'0 0.0
2018-Jun-21 23:30N 20°29' W 086°59'0 0.0
2018-Jun-21 23:00N 20°29' W 086°59'0 0.0
2018-Jun-21 22:30N 20°29' W 086°59'0 0.0
2018-Jun-21 21:59N 20°29' W 086°59'0 0.0
2018-Jun-21 21:29N 20°29' W 086°59'0 0.0
2018-Jun-21 21:00N 20°29' W 086°59'0 0.0
2018-Jun-21 20:28N 20°29' W 086°59'0 0.0
2018-Jun-21 19:58N 20°29' W 086°59'0 0.0
2018-Jun-21 19:30N 20°29' W 086°59'0 0.0
2018-Jun-21 19:00N 20°29' W 086°59'0 0.0
2018-Jun-21 18:30N 20°29' W 086°59'0 0.0
2018-Jun-21 18:01N 20°29' W 086°59'0 0.0
2018-Jun-21 17:30N 20°29' W 086°59'0 0.0
2018-Jun-21 17:00N 20°29' W 086°59'0 0.0
2018-Jun-21 16:30N 20°29' W 086°59'0 0.0
2018-Jun-21 16:00N 20°29' W 086°59'0 0.0
2018-Jun-21 15:30N 20°29' W 086°59'0 0.0
2018-Jun-21 15:00N 20°29' W 086°59'0 0.0
2018-Jun-21 14:30N 20°29' W 086°59'0 0.0
2018-Jun-21 14:01N 20°29' W 086°59'0 0.0
2018-Jun-21 13:30N 20°29' W 086°59'0 0.7
2018-Jun-21 13:00N 20°29' W 086°59'5 9.1
2018-Jun-21 12:30N 20°26' W 087°02'  
2018-Jun-17 07:00N 24°00' W 081°42'11418.0 140 / 151016.710.8 28.024.429.0
2018-Jun-17 00:42N 25°12' W 080°05'317.3
2018-Jun-17 00:30N 25°15' W 080°04'817.0
2018-Jun-17 00:00N 25°23' W 080°00'816.4
2018-Jun-16 23:30N 25°31' W 079°60'815.8
2018-Jun-16 23:00N 25°39' W 079°59'815.4
2018-Jun-16 22:30N 25°47' W 079°58'714.9
2018-Jun-16 22:00N 25°54' W 079°58'815.2
2018-Jun-16 21:30N 26°01' W 080°00'611.7
2018-Jun-16 21:01N 26°06' W 080°04'3 5.1
2018-Jun-16 20:28N 26°06' W 080°07'0 0.0
2018-Jun-16 19:49N 26°06' W 080°07'0 0.0
2018-Jun-16 19:19N 26°06' W 080°07'0 0.0
2018-Jun-16 18:52N 26°06' W 080°07'0 0.0
2018-Jun-16 18:22N 26°06' W 080°07'0 0.0
2018-Jun-16 17:52N 26°06' W 080°07'0 0.0
2018-Jun-16 17:22N 26°06' W 080°07'0 0.0
2018-Jun-16 16:52N 26°06' W 080°07'0 0.0
2018-Jun-16 16:22N 26°06' W 080°07'0 0.0
2018-Jun-16 15:55N 26°06' W 080°07'0 0.0
2018-Jun-16 15:25N 26°06' W 080°07'0 0.0
2018-Jun-16 14:55N 26°06' W 080°07'0 0.0
2018-Jun-16 14:30N 26°06' W 080°07'0 0.0
2018-Jun-16 14:00N 26°06' W 080°07'0 0.0
2018-Jun-16 13:30N 26°06' W 080°07'0 0.0
2018-Jun-16 13:00N 26°06' W 080°07'0 0.0
2018-Jun-16 12:30N 26°06' W 080°07'0 0.0
2018-Jun-16 11:56N 26°06' W 080°07'0 0.0
2018-Jun-16 11:26N 26°06' W 080°07'0 0.0
2018-Jun-16 10:54N 26°06' W 080°07'0 0.0
2018-Jun-16 10:30N 26°06' W 080°07'2 3.9
2018-Jun-16 10:00N 26°06' W 080°05'510.3
2018-Jun-16 09:30N 26°06' W 079°59'612.4
2018-Jun-16 09:00N 26°06' W 079°53'611.3
2018-Jun-16 08:30N 26°07' W 079°46'611.9
2018-Jun-16 07:59N 26°08' W 079°39'611.9
2018-Jun-16 07:30N 26°09' W 079°33'612.0
2018-Jun-16 07:01N 26°10' W 079°27'5278.6
2018-Jun-16 07:00N 26°06' W 079°30'1020.5 180 / 71016.710.8 27.024.129.0
2018-Jun-16 06:30N 26°10' W 079°20'911.9
2018-Jun-16 05:47N 26°11' W 079°10'  
2018-Jun-13 23:29N 18°12' W 063°23'919.6
2018-Jun-13 23:00N 18°05' W 063°16'916.8
2018-Jun-13 22:27N 18°01' W 063°07'  
Track history (hours):
 
Tides and Currents Weather Stations Pressure Air Temp Water Temp Dewpoint Dewpoint Depression Visibility Wind Speed Wind Dir Waves Ship Positions

Caribbean Princess

Operator: Princess Cruises

Last reported at 2018-Jun-23 22:09 UTC. Time now 2018-Jun-25 00:40 UTC.
Position N 26°08' W 079°35'.

Type: Passenger vessel. MMSI: 310423000.

Date/timePositionNaut miles runAvg speedWind from/ knotsBaromVisibWave heightAir tempDewpointWater temp
2018-Jun-23 22:09N 26°08' W 079°35'319.6
2018-Jun-23 22:00N 26°08' W 079°38'1019.3
2018-Jun-23 21:30N 26°07' W 079°49'918.5
2018-Jun-23 21:00N 26°07' W 079°59'713.1
2018-Jun-23 20:30N 26°06' W 080°06'1 1.6
2018-Jun-23 19:55N 26°06' W 080°07'0 0.0
2018-Jun-23 19:25N 26°06' W 080°07'0 0.0
2018-Jun-23 18:52N 26°06' W 080°07'0 0.0
2018-Jun-23 18:30N 26°06' W 080°07'0 0.0
2018-Jun-23 18:00N 26°06' W 080°07'0 0.0
2018-Jun-23 17:30N 26°06' W 080°07'0 0.0
2018-Jun-23 16:54N 26°06' W 080°07'0 0.0
2018-Jun-23 16:30N 26°06' W 080°07'0 0.0
2018-Jun-23 15:52N 26°06' W 080°07'0 0.0
2018-Jun-23 15:28N 26°06' W 080°07'0 0.0
2018-Jun-23 14:58N 26°06' W 080°07'0 0.0
2018-Jun-23 14:28N 26°06' W 080°07'0 0.0
2018-Jun-23 14:01N 26°06' W 080°07'0 0.0
2018-Jun-23 13:27N 26°06' W 080°07'0 0.0
2018-Jun-23 12:57N 26°06' W 080°07'0 0.0
2018-Jun-23 12:30N 26°06' W 080°07'0 0.0
2018-Jun-23 12:00N 26°06' W 080°07'0 0.0
2018-Jun-23 11:30N 26°06' W 080°07'0 0.0
2018-Jun-23 10:57N 26°06' W 080°07'0 0.0
2018-Jun-23 10:30N 26°06' W 080°07'2 3.3
2018-Jun-23 10:00N 26°06' W 080°05'5 9.7
2018-Jun-23 09:30N 26°06' W 079°60'612.0
2018-Jun-23 09:00N 26°03' W 079°54'815.1
2018-Jun-23 08:30N 25°55' W 079°52'714.7
2018-Jun-23 08:00N 25°48' W 079°52'714.7
2018-Jun-23 07:30N 25°41' W 079°53'714.9
2018-Jun-23 07:00N 25°33' W 079°53'814.8
2018-Jun-23 06:29N 25°26' W 079°54'714.8
2018-Jun-23 06:00N 25°19' W 079°56'48017.4
2018-Jun-22 02:23N 20°34' W 086°57'410.6
2018-Jun-22 02:00N 20°31' W 086°59'2 4.0
2018-Jun-22 01:29N 20°29' W 086°59'0 0.0
2018-Jun-22 00:59N 20°29' W 086°59'0 0.0
2018-Jun-22 00:30N 20°29' W 086°59'0 0.0
2018-Jun-22 00:00N 20°29' W 086°59'0 0.0
2018-Jun-21 23:30N 20°29' W 086°59'0 0.0
2018-Jun-21 23:00N 20°29' W 086°59'0 0.0
2018-Jun-21 22:30N 20°29' W 086°59'0 0.0
2018-Jun-21 21:59N 20°29' W 086°59'0 0.0
2018-Jun-21 21:29N 20°29' W 086°59'0 0.0
2018-Jun-21 21:00N 20°29' W 086°59'0 0.0
2018-Jun-21 20:28N 20°29' W 086°59'0 0.0
2018-Jun-21 19:58N 20°29' W 086°59'0 0.0
2018-Jun-21 19:30N 20°29' W 086°59'0 0.0
2018-Jun-21 19:00N 20°29' W 086°59'0 0.0
2018-Jun-21 18:30N 20°29' W 086°59'0 0.0
2018-Jun-21 18:01N 20°29' W 086°59'0 0.0
2018-Jun-21 17:30N 20°29' W 086°59'0 0.0
2018-Jun-21 17:00N 20°29' W 086°59'0 0.0
2018-Jun-21 16:30N 20°29' W 086°59'0 0.0
2018-Jun-21 16:00N 20°29' W 086°59'0 0.0
2018-Jun-21 15:30N 20°29' W 086°59'0 0.0
2018-Jun-21 15:00N 20°29' W 086°59'0 0.0
2018-Jun-21 14:30N 20°29' W 086°59'0 0.0
2018-Jun-21 14:01N 20°29' W 086°59'0 0.0
2018-Jun-21 13:30N 20°29' W 086°59'0 0.7
2018-Jun-21 13:00N 20°29' W 086°59'5 9.1
2018-Jun-21 12:30N 20°26' W 087°02'  
2018-Jun-17 07:00N 24°00' W 081°42'11418.0 140 / 151016.710.8 28.024.429.0
2018-Jun-17 00:42N 25°12' W 080°05'317.3
2018-Jun-17 00:30N 25°15' W 080°04'817.0
2018-Jun-17 00:00N 25°23' W 080°00'816.4
2018-Jun-16 23:30N 25°31' W 079°60'815.8
2018-Jun-16 23:00N 25°39' W 079°59'815.4
2018-Jun-16 22:30N 25°47' W 079°58'714.9
2018-Jun-16 22:00N 25°54' W 079°58'815.2
2018-Jun-16 21:30N 26°01' W 080°00'611.7
2018-Jun-16 21:01N 26°06' W 080°04'3 5.1
2018-Jun-16 20:28N 26°06' W 080°07'0 0.0
2018-Jun-16 19:49N 26°06' W 080°07'0 0.0
2018-Jun-16 19:19N 26°06' W 080°07'0 0.0
2018-Jun-16 18:52N 26°06' W 080°07'0 0.0
2018-Jun-16 18:22N 26°06' W 080°07'0 0.0
2018-Jun-16 17:52N 26°06' W 080°07'0 0.0
2018-Jun-16 17:22N 26°06' W 080°07'0 0.0
2018-Jun-16 16:52N 26°06' W 080°07'0 0.0
2018-Jun-16 16:22N 26°06' W 080°07'0 0.0
2018-Jun-16 15:55N 26°06' W 080°07'0 0.0
2018-Jun-16 15:25N 26°06' W 080°07'0 0.0
2018-Jun-16 14:55N 26°06' W 080°07'0 0.0
2018-Jun-16 14:30N 26°06' W 080°07'0 0.0
2018-Jun-16 14:00N 26°06' W 080°07'0 0.0
2018-Jun-16 13:30N 26°06' W 080°07'0 0.0
2018-Jun-16 13:00N 26°06' W 080°07'0 0.0
2018-Jun-16 12:30N 26°06' W 080°07'0 0.0
2018-Jun-16 11:56N 26°06' W 080°07'0 0.0
2018-Jun-16 11:26N 26°06' W 080°07'0 0.0
2018-Jun-16 10:54N 26°06' W 080°07'0 0.0
2018-Jun-16 10:30N 26°06' W 080°07'2 3.9
2018-Jun-16 10:00N 26°06' W 080°05'510.3
2018-Jun-16 09:30N 26°06' W 079°59'612.4
2018-Jun-16 09:00N 26°06' W 079°53'611.3
2018-Jun-16 08:30N 26°07' W 079°46'611.9
2018-Jun-16 07:59N 26°08' W 079°39'611.9
2018-Jun-16 07:30N 26°09' W 079°33'612.0
2018-Jun-16 07:01N 26°10' W 079°27'5278.6
2018-Jun-16 07:00N 26°06' W 079°30'1020.5 180 / 71016.710.8 27.024.129.0
2018-Jun-16 06:30N 26°10' W 079°20'911.9
2018-Jun-16 05:47N 26°11' W 079°10'  
2018-Jun-13 23:29N 18°12' W 063°23'919.6
2018-Jun-13 23:00N 18°05' W 063°16'916.8
2018-Jun-13 22:27N 18°01' W 063°07'  

Dump ship's entire track history